Terminal Aerodrome Forecast
Issued by NWS Greer, SC

Home | Current Version | Previous Version | Text Only | Print | Product List | Glossary On
Versions: 1 2 3 4 5 6 7 8 9 10 11 12 13 14 15 16
000
FTUS42 KGSP 032327
TAFAVL
TAF
KAVL 032327Z 0400/0424 34005KT P6SM OVC080
     FM040300 35004KT P6SM VCSH OVC060
     FM040600 VRB03KT 6SM -RA BR OVC035
     FM040800 14003KT 3SM RA BR OVC020
     FM041100 14004KT 3SM -RA BR OVC010
     FM041500 14006KT 2SM RA BR OVC007=

USA.gov is the U.S. government's official web portal to all federal, state and local government web resources and services.